Terminal Aerodrome Forecast
Issued by NWS

Home | Current Version | Previous Version | Text Only | Print | Product List | Glossary On
Versions: 1 2 3 4 5 6 7 8 9 10 11 12 13
018
FTUS42 KMLB 131720
TAFTIX
TAF
KTIX 131720Z 1318/1418 01015KT P6SM SKC
     FM131900 01012G18KT P6SM SKC
     FM140000 01007KT P6SM SKC
     FM141200 03010KT P6SM SCT035
     FM141400 07011KT P6SM BKN035=

USA.gov is the U.S. government's official web portal to all federal, state and local government web resources and services.